PDX weather

Portland International Airport
Portland, Oregon, United States

Public forecast

Using degrees Fahrenheit for public forecast. Weather courtesy of forecast.io.

Current aviation weather report (METAR) for Portland International Airport

Retrieved 2019/11/20 00:01 UTC (26 minutes ago):

KPDX 200001Z 00000KT 10SM BKN028 BKN036 OVC050 12/07 A2991

Aviation forecast (TAF) for Portland International Airport

Retrieved 2019-11-20 00:22 UTC (5 minutes ago):

TAF KPDX 192320Z 2000/2024 32010KT P6SM FEW025 OVC035 FM201500 VRB03KT P6SM OVC100 FM201600 06007KT P6SM BKN250